Time;durP1;ratioP1;P1;durP2;ratioP2;P2;SDS_P1;SDS_P2;PMS_P1;PMS_P2;Temp;Humidity;BMP_temperature;BMP_pressure;BME280_temperature;BME280_humidity;BME280_pressure;Samples;Min_cycle;Max_cycle;Signal;HPM_P1;HPM_P2
2022/07/06 00:01:29;;;;;;;;;;;;;;;18.04;100.00;98335.64;1738946;80;20782;-96
2022/07/06 02:31:19;;;;;;;;;;;;;;;18.32;100.00;98355.19;1723108;78;20268;-96
2022/07/06 02:36:56;;;;;;;;;;;;;;;18.39;100.00;98357.52;1786181;77;20860;-96
2022/07/06 02:39:24;;;;;;;;;;;;;;;18.37;100.00;98353.38;1724528;82;20443;-96
2022/07/06 02:45:14;;;;;;;;;;;;;;;18.36;100.00;98363.63;1724102;80;20575;-96
2022/07/06 02:51:03;;;;;;;;;;;;;;;18.28;100.00;98367.05;1793618;80;20767;-96
2022/07/06 03:02:06;;;;;;;;;;;;;;;;;;;;;
2022/07/06 03:08:06;;;;;;;;;;;;;;;18.11;100.00;98386.48;1636154;88;20382;-96
2022/07/06 03:14:14;;;;;;;;;;;;;;;;;;;;;
2022/07/06 03:19:45;;;;;;;;;;;;;;;18.22;100.00;98385.42;1552939;89;20678;-96
2022/07/06 03:39:07;;;;;;;;;;;;;;;18.12;100.00;98407.19;1717141;83;22171;-96
2022/07/06 03:41:36;;;;;;;;;;;;;;;18.17;100.00;98407.55;1717828;82;20627;-96
2022/07/06 03:47:25;;;;;;;;;;;;;;;18.15;100.00;98414.34;1678673;85;56425;-95
2022/07/06 03:49:51;;;;;;;;;;;;;;;18.17;100.00;98416.82;1677043;85;173441;-96
2022/07/06 03:52:17;;;;;;;;;;;;;;;18.15;100.00;98417.48;1681813;85;36139;-96
2022/07/06 03:54:48;;;;;;;;;;;;;;;18.09;100.00;98423.40;1682294;85;20311;-96
2022/07/06 03:57:14;;;;;;;;;;;;;;;18.02;100.00;98423.67;1682299;85;20164;-96
2022/07/06 03:59:40;;;;;;;;;;;;;;;18.03;100.00;98422.20;1681984;85;20712;-96
2022/07/06 04:02:06;;;;;;;;;;;;;;;18.05;100.00;98425.53;1681982;85;21764;-96
2022/07/06 04:04:34;;;;;;;;;;;;;;;17.98;100.00;98420.51;1717328;83;26183;-95
2022/07/06 04:07:00;;;;;;;;;;;;;;;17.96;100.00;98423.79;1682342;85;24365;-96
2022/07/06 04:09:26;;;;;;;;;;;;;;;17.96;100.00;98427.27;1682567;85;20263;-95
2022/07/06 04:11:52;;;;;;;;;;;;;;;18.01;100.00;98437.89;1682288;85;24500;-94
2022/07/06 04:14:21;;;;;;;;;;;;;;;18.02;100.00;98435.59;1681767;85;20212;-96
2022/07/06 04:16:47;;;;;;;;;;;;;;;17.99;100.00;98434.09;1717955;82;26106;-96
2022/07/06 04:19:20;;;;;;;;;;;;;;;18.02;100.00;98434.26;1717650;83;20850;-96
2022/07/06 04:21:44;;;;;;;;;;;;;;;18.01;100.00;98436.08;1682393;85;20262;-96
2022/07/06 04:24:10;;;;;;;;;;;;;;;17.99;100.00;98442.03;1716389;82;24652;-95
2022/07/06 04:26:36;;;;;;;;;;;;;;;17.96;100.00;98443.16;1682015;85;22134;-96
2022/07/06 04:29:02;;;;;;;;;;;;;;;17.95;100.00;98442.81;1685458;84;26166;-96
2022/07/06 04:31:28;;;;;;;;;;;;;;;17.95;100.00;98444.14;1717571;82;20248;-95
2022/07/06 04:33:54;;;;;;;;;;;;;;;17.94;100.00;98441.66;1717281;82;20307;-95
2022/07/06 04:36:19;;;;;;;;;;;;;;;17.90;100.00;98438.47;1717258;82;20400;-95
2022/07/06 04:38:47;;;;;;;;;;;;;;;17.91;100.00;98437.49;1697751;83;20413;-95
2022/07/06 04:51:00;;;;;;;;;;;;;;;18.01;100.00;98431.27;1682694;82;20156;-96
2022/07/06 06:17:31;;;;;;;;;;;;;;;19.29;100.00;98490.03;1744883;78;20242;-96
2022/07/06 06:23:08;;;;;;;;;;;;;;;19.32;100.00;98494.17;1631981;83;202801;-96
2022/07/06 06:31:28;;;;;;;;;;;;;;;19.35;100.00;98505.31;1669922;83;20194;-96
2022/07/06 06:33:53;;;;;;;;;;;;;;;19.36;100.00;98504.83;1667151;84;22053;-96
2022/07/06 06:44:54;;;;;;;;;;;;;;;19.00;100.00;98505.48;1754136;78;20764;-96
2022/07/06 07:21:30;;;;;;;;;;;;;;;18.18;100.00;98524.45;1718493;83;20552;-95
2022/07/06 07:23:56;;;;;;;;;;;;;;;17.98;100.00;98530.41;1717782;83;20146;-94
2022/07/06 08:48:47;;;;;;;;;;;;;;;19.79;100.00;98555.09;1743783;78;81281;-96
2022/07/06 10:06:34;;;;;;;;;;;;;;;19.41;100.00;98583.47;1777581;78;20266;-95
2022/07/06 10:09:05;;;;;;;;;;;;;;;19.39;100.00;98579.64;1772228;79;23139;-96
2022/07/06 10:11:35;;;;;;;;;;;;;;;19.37;100.00;98576.30;1780279;78;24442;-96
2022/07/06 10:14:03;;;;;;;;;;;;;;;19.41;100.00;98577.67;1765241;78;20173;-96
2022/07/06 10:16:29;;;;;;;;;;;;;;;19.49;100.00;98567.59;1771852;81;25095;-95
2022/07/06 10:22:04;;;;;;;;;;;;;;;19.64;100.00;98560.19;1715613;81;22063;-96
2022/07/06 10:30:07;;;;;;;;;;;;;;;20.21;100.00;98561.64;1750523;78;20687;-95
2022/07/06 10:32:34;;;;;;;;;;;;;;;20.41;100.00;98570.98;1780178;80;50076;-95
2022/07/06 10:35:11;;;;;;;;;;;;;;;20.60;100.00;98571.66;1751041;80;310164;-96
2022/07/06 10:37:37;;;;;;;;;;;;;;;20.66;100.00;98573.16;1767995;80;222051;-96
2022/07/06 10:48:17;;;;;;;1.70;1.40;;;;;;;21.08;100.00;98577.41;1741716;78;28112;-96
2022/07/06 11:18:03;;;;;;;;;;;;;;;20.84;100.00;98579.59;1683609;79;20151;-95
2022/07/06 11:34:54;;;;;;;;;;;;;;;21.13;100.00;98580.38;1791668;80;20255;-96
2022/07/06 11:37:23;;;;;;;;;;;;;;;21.16;100.00;98578.27;1812500;79;24596;-96
2022/07/06 11:42:54;;;;;;;;;;;;;;;21.07;100.00;98579.23;1782790;78;20855;-96
2022/07/06 11:45:30;;;;;;;;;;;;;;;21.25;100.00;98570.57;1795054;78;24460;-96
2022/07/06 11:59:19;;;;;;;;;;;;;;;21.76;100.00;98559.55;1765968;78;22306;-96
2022/07/06 12:02:17;;;;;;;;;;;;;;;21.87;100.00;98565.81;1747094;78;20798;-96
2022/07/06 12:13:13;;;;;;;;;;;;;;;22.14;100.00;98555.18;1753988;78;20204;-96
2022/07/06 12:15:39;;;;;;;;;;;;;;;22.13;100.00;98553.52;1752114;80;20257;-95
2022/07/06 12:23:56;;;;;;;;;;;;;;;22.34;100.00;98541.69;1771554;77;20739;-95
2022/07/06 12:40:24;;;;;;;;;;;;;;;22.82;100.00;98541.28;1740375;80;20203;-96
2022/07/06 12:46:02;;;;;;;;;;;;;;;22.90;100.00;98541.22;1770069;80;20651;-96
2022/07/06 12:48:30;;;;;;;;;;;;;;;23.02;100.00;98539.43;1763847;81;21802;-96
2022/07/06 12:50:57;;;;;;;;;;;;;;;23.11;100.00;98540.98;1768929;81;26190;-96
2022/07/06 12:53:25;;;;;;;;;;;;;;;23.14;100.00;98542.77;1759109;81;24365;-96
2022/07/06 12:56:06;;;;;;;;;;;;;;;23.15;100.00;98545.77;1768570;81;34868;-96
2022/07/06 13:01:57;;;;;;;;;;;;;;;22.96;100.00;98540.99;1739086;82;20168;-95
2022/07/06 13:04:26;;;;;;;;;;;;;;;22.84;100.00;98536.60;1732198;82;25978;-96
2022/07/06 13:06:52;;;;;;;;;;;;;;;22.76;100.00;98531.83;1737901;82;24362;-95
2022/07/06 13:09:20;;;;;;;;;;;;;;;22.77;100.00;98535.66;1752583;81;20183;-96
2022/07/06 13:15:08;;;;;;;;;;;;;;;23.07;100.00;98532.53;1768947;80;20186;-95
2022/07/06 13:17:35;;;;;;;;;;;;;;;23.24;100.00;98525.13;1768743;81;26071;-96
2022/07/06 13:20:01;;;;;;;;;;;;;;;23.30;100.00;98526.56;1734116;81;24477;-96
2022/07/06 13:28:19;;;;;;;;;;;;;;;23.51;100.00;98522.36;1760202;81;20482;-96
2022/07/06 13:33:56;;;;;;;;;;;;;;;23.27;100.00;98518.94;1759247;81;20588;-96
2022/07/06 14:00:30;;;;;;;1.60;0.82;;;;;;;22.98;100.00;98484.23;1737071;81;101654;-89
2022/07/06 14:02:56;;;;;;;1.20;0.90;;;;;;;23.37;100.00;98483.92;1756533;79;28062;-88
2022/07/06 14:05:23;;;;;;;0.80;0.80;;;;;;;23.64;100.00;98479.23;1722863;82;27985;-89
2022/07/06 14:07:49;;;;;;;2.47;0.60;;;;;;;23.86;100.00;98485.43;1720602;81;28103;-88
2022/07/06 14:10:16;;;;;;;2.25;1.50;;;;;;;23.92;100.00;98484.67;1721230;82;28147;-89
2022/07/06 14:12:42;;;;;;;1.57;1.32;;;;;;;23.87;100.00;98480.91;1723370;82;28013;-89
2022/07/06 14:15:14;;;;;;;30.90;24.80;;;;;;;23.83;100.00;98477.80;1727667;82;28064;-88
2022/07/06 14:17:40;;;;;;;4.50;2.50;;;;;;;23.90;100.00;98473.83;1728095;82;28180;-85
2022/07/06 14:20:07;;;;;;;115.90;78.70;;;;;;;23.94;100.00;98474.63;1721981;81;28115;-86
2022/07/06 14:22:33;;;;;;;7.55;6.05;;;;;;;24.12;100.00;98474.16;1724074;81;28028;-86
2022/07/06 14:25:00;;;;;;;4.00;2.70;;;;;;;24.13;100.00;98467.79;1724990;81;28165;-86
2022/07/06 14:27:31;;;;;;;1.50;1.20;;;;;;;24.15;100.00;98464.42;1696124;82;28081;-86
2022/07/06 14:29:57;;;;;;;0.88;0.88;;;;;;;24.26;100.00;98461.27;1696965;82;28096;-85
2022/07/06 14:32:23;;;;;;;1.40;1.30;;;;;;;24.18;100.00;98462.22;1717420;81;28138;-85
2022/07/06 14:34:49;;;;;;;0.57;0.57;;;;;;;24.16;100.00;98456.22;1695235;82;28106;-85
2022/07/06 14:37:16;;;;;;;15.32;9.30;;;;;;;24.21;100.00;98454.33;1728979;81;28133;-85
2022/07/06 14:39:45;;;;;;;34.58;24.85;;;;;;;24.22;100.00;98454.62;1720896;82;27993;-86
2022/07/06 14:42:11;;;;;;;157.85;120.67;;;;;;;24.42;100.00;98453.45;1720180;81;28176;-86
2022/07/06 14:44:37;;;;;;;260.63;187.65;;;;;;;24.55;100.00;98449.02;1714758;82;28072;-86
2022/07/06 14:47:04;;;;;;;101.50;66.60;;;;;;;24.60;100.00;98444.44;1726861;82;28017;-86
2022/07/06 14:49:31;;;;;;;48.92;32.25;;;;;;;24.66;100.00;98446.30;1720566;82;28076;-87
2022/07/06 14:51:57;;;;;;;235.30;147.65;;;;;;;24.71;100.00;98442.52;1721399;81;28153;-87
2022/07/06 14:54:26;;;;;;;107.55;72.82;;;;;;;24.78;100.00;98447.92;1727211;81;28046;-86
2022/07/06 14:56:52;;;;;;;105.90;74.30;;;;;;;24.76;100.00;98441.45;1729436;81;28093;-87
2022/07/06 14:59:20;;;;;;;40.90;29.67;;;;;;;24.83;100.00;98447.65;1696977;83;28104;-87
2022/07/06 15:01:46;;;;;;;181.18;125.45;;;;;;;24.86;100.00;98443.26;1695898;82;28100;-87
2022/07/06 15:04:13;;;;;;;33.60;25.35;;;;;;;24.83;100.00;98447.65;1721771;81;28097;-87
2022/07/06 15:06:39;;;;;;;6.92;5.60;;;;;;;24.70;100.00;98450.77;1721207;82;28064;-86
2022/07/06 15:09:06;;;;;;;2.72;1.90;;;;;;;24.59;100.00;98450.30;1721053;82;28103;-86
2022/07/06 15:11:32;;;;;;;1.47;1.10;;;;;;;24.41;100.00;98447.28;1692453;84;28075;-86
2022/07/06 15:13:58;;;;;;;2.22;1.50;;;;;;;24.32;100.00;98442.27;1697011;83;28060;-86
2022/07/06 15:16:29;;;;;;;1.80;1.00;;;;;;;24.20;100.00;98440.63;1721353;81;28150;-87
2022/07/06 15:18:55;;;;;;;1.10;0.95;;;;;;;24.16;99.15;98432.66;1697071;82;28130;-87
2022/07/06 15:21:21;;;;;;;2.02;1.10;;;;;;;24.08;98.51;98433.61;1691066;82;28082;-86
2022/07/06 15:23:47;;;;;;;3.35;1.10;;;;;;;24.02;97.81;98440.23;1717746;82;28107;-86
2022/07/06 15:26:14;;;;;;;1.07;0.70;;;;;;;23.91;97.17;98434.89;1692124;82;28132;-86
2022/07/06 15:28:42;;;;;;;2.25;0.93;;;;;;;23.90;96.89;98435.08;1719215;82;28071;-87
2022/07/06 15:31:08;;;;;;;1.00;0.68;;;;;;;23.71;96.17;98433.38;1722882;81;28036;-86
2022/07/06 15:33:34;;;;;;;2.50;1.17;;;;;;;23.61;95.62;98429.36;1695501;82;28180;-86
2022/07/06 15:36:00;;;;;;;3.55;1.47;;;;;;;23.69;95.63;98434.56;1727335;82;28068;-87
2022/07/06 15:38:28;;;;;;;3.45;1.70;;;;;;;23.76;95.41;98436.30;1725026;81;28064;-85
2022/07/06 15:40:59;;;;;;;2.25;1.37;;;;;;;23.78;95.35;98436.92;1724130;81;28118;-85
2022/07/06 15:43:26;;;;;;;2.70;1.22;;;;;;;23.80;95.34;98434.57;1722637;81;28200;-86
2022/07/06 15:46:00;;;;;;;1.47;0.85;;;;;;;23.86;95.33;98435.14;1724102;81;28180;-89
2022/07/06 15:48:29;;;;;;;1.67;1.20;;;;;;;23.90;95.19;98431.06;1693590;83;28078;-86
2022/07/06 15:50:59;;;;;;;1.65;1.00;;;;;;;23.86;95.01;98425.79;1722759;81;28072;-86
2022/07/06 15:53:25;;;;;;;2.22;0.90;;;;;;;23.89;95.02;98428.09;1720377;82;28092;-86
2022/07/06 15:55:51;;;;;;;2.67;0.80;;;;;;;23.91;95.08;98426.04;1724180;81;28048;-85
2022/07/06 15:58:18;;;;;;;5.20;2.05;;;;;;;23.90;94.81;98425.20;1700200;82;28103;-86
2022/07/06 16:00:46;;;;;;;3.08;1.22;;;;;;;23.88;94.54;98424.59;1720123;81;28194;-86
2022/07/06 16:03:12;;;;;;;5.85;2.62;;;;;;;23.88;94.30;98431.78;1724379;81;28166;-86
2022/07/06 16:05:38;;;;;;;2.00;1.30;;;;;;;23.89;94.07;98423.58;1712796;81;28075;-87
2022/07/06 16:08:04;;;;;;;2.30;1.10;;;;;;;23.95;93.88;98428.64;1720115;81;28138;-87
2022/07/06 16:10:31;;;;;;;1.60;1.00;;;;;;;23.88;93.59;98427.27;1721808;81;28057;-87
2022/07/06 16:12:57;;;;;;;1.15;0.80;;;;;;;23.88;93.41;98432.61;1720003;81;28108;-86
2022/07/06 16:15:25;;;;;;;1.72;1.05;;;;;;;23.86;93.40;98435.14;1723050;81;28134;-86
2022/07/06 16:17:57;;;;;;;0.60;0.60;;;;;;;23.82;93.41;98428.03;1722296;80;28072;-87
2022/07/06 16:20:24;;;;;;;0.82;0.60;;;;;;;23.81;93.21;98433.56;1722259;81;28001;-85
2022/07/06 16:22:50;;;;;;;1.17;0.80;;;;;;;23.71;92.68;98433.38;1720616;81;28122;-86
2022/07/06 16:25:21;;;;;;;1.02;0.90;;;;;;;23.64;92.13;98437.81;1719598;81;28115;-89
2022/07/06 16:27:48;;;;;;;1.92;0.85;;;;;;;23.59;91.59;98440.23;1721799;81;28147;-89
2022/07/06 16:30:14;;;;;;;1.77;1.15;;;;;;;23.31;90.83;98455.28;1690410;83;28171;-85
2022/07/06 16:32:44;;;;;;;2.72;1.10;;;;;;;22.64;88.62;98459.91;1722636;81;28084;-85
2022/07/06 16:35:10;;;;;;;3.60;1.17;;;;;;;22.09;86.84;98456.56;1710254;83;28091;-86
2022/07/06 16:37:37;;;;;;;2.15;1.10;;;;;;;21.70;85.76;98459.84;1723223;81;28091;-86
2022/07/06 16:40:06;;;;;;;3.05;1.17;;;;;;;21.41;85.08;98462.34;1699466;83;28070;-89
2022/07/06 16:42:33;;;;;;;1.40;0.82;;;;;;;21.23;84.84;98470.58;1717858;81;28481;-86
2022/07/06 16:45:05;;;;;;;3.50;0.80;;;;;;;21.03;84.55;98470.14;1714014;81;28065;-86
2022/07/06 16:47:32;;;;;;;3.12;1.17;;;;;;;20.79;84.17;98471.53;1719682;81;28118;-85
2022/07/06 16:49:58;;;;;;;1.80;1.15;;;;;;;20.68;84.17;98475.39;1722635;81;28076;-85
2022/07/06 16:52:27;;;;;;;2.17;1.20;;;;;;;20.61;84.32;98472.27;1715741;81;28245;-86
2022/07/06 16:54:54;;;;;;;3.87;0.95;;;;;;;20.50;84.35;98472.62;1713058;81;28079;-85
2022/07/06 16:57:21;;;;;;;2.80;1.05;;;;;;;20.40;84.37;98476.27;1691245;83;28477;-85
2022/07/06 16:59:50;;;;;;;1.30;0.98;;;;;;;20.40;84.74;98474.14;1697409;83;28072;-86
2022/07/06 17:02:17;;;;;;;2.10;1.30;;;;;;;20.45;85.30;98476.63;1731621;81;28072;-86
2022/07/06 17:04:45;;;;;;;2.22;1.05;;;;;;;20.45;85.64;98484.59;1696757;84;28090;-86
2022/07/06 17:07:12;;;;;;;3.92;1.60;;;;;;;20.43;85.77;98475.12;1735014;81;28243;-86
2022/07/06 17:09:41;;;;;;;1.60;1.20;;;;;;;20.36;85.78;98476.28;1713429;82;28145;-86
2022/07/06 17:12:08;;;;;;;2.55;1.67;;;;;;;20.29;85.70;98474.45;1733346;81;28053;-86
2022/07/06 17:14:36;;;;;;;2.10;1.50;;;;;;;20.22;85.62;98476.09;1711096;82;28169;-89
2022/07/06 17:17:03;;;;;;;3.83;1.92;;;;;;;20.21;85.79;98476.59;1732841;81;27999;-89
2022/07/06 17:19:32;;;;;;;1.62;1.10;;;;;;;20.18;86.05;98478.77;1732217;81;28074;-89
2022/07/06 17:21:58;;;;;;;2.30;1.32;;;;;;;20.16;86.56;98479.42;1732795;80;28171;-89
2022/07/06 17:24:24;;;;;;;2.62;1.10;;;;;;;20.10;86.89;98474.27;1733813;81;28098;-89
2022/07/06 17:26:51;;;;;;;3.77;1.20;;;;;;;20.05;87.19;98474.77;1731208;82;28097;-89
2022/07/06 17:29:17;;;;;;;4.20;1.30;;;;;;;20.04;87.69;98483.73;1730341;81;28080;-84
2022/07/06 17:31:43;;;;;;;3.75;1.00;;;;;;;20.02;88.17;98485.72;1732930;81;28100;-84
2022/07/06 17:34:09;;;;;;;6.05;1.35;;;;;;;20.03;88.71;98484.73;1704401;82;28092;-84
2022/07/06 17:36:36;;;;;;;2.05;1.10;;;;;;;20.02;89.31;98484.39;1733078;81;28177;-84
2022/07/06 17:39:02;;;;;;;4.15;1.17;;;;;;;20.05;90.00;98483.23;1732453;81;28034;-84
2022/07/06 17:41:28;;;;;;;3.45;1.50;;;;;;;20.10;90.78;98476.93;1728812;82;28099;-84
2022/07/06 17:43:54;;;;;;;1.85;1.17;;;;;;;20.13;91.36;98477.11;1735564;81;28102;-84
2022/07/06 17:46:22;;;;;;;1.27;0.88;;;;;;;20.15;92.03;98476.42;1712671;82;28144;-84
2022/07/06 17:48:49;;;;;;;6.50;1.30;;;;;;;20.15;92.63;98483.07;1731659;81;28103;-84
2022/07/06 17:51:16;;;;;;;1.65;1.27;;;;;;;20.02;92.84;98480.90;1731177;82;28114;-84
2022/07/06 17:53:44;;;;;;;1.22;1.10;;;;;;;19.97;93.20;98481.89;1714277;82;28078;-84
2022/07/06 17:56:10;;;;;;;2.52;1.20;;;;;;;19.97;93.63;98488.04;1730829;81;28199;-84
2022/07/06 17:58:36;;;;;;;2.52;1.10;;;;;;;19.90;93.96;98485.73;1731511;81;28153;-84
2022/07/06 18:01:02;;;;;;;2.58;1.20;;;;;;;19.86;94.36;98480.88;1734955;81;28026;-84
2022/07/06 18:03:28;;;;;;;2.08;1.00;;;;;;;19.82;94.82;98486.20;1746608;80;28162;-85
2022/07/06 18:05:54;;;;;;;2.60;0.95;;;;;;;19.77;95.10;98487.19;1753479;80;28273;-85
2022/07/06 18:08:21;;;;;;;2.10;1.20;;;;;;;19.71;95.33;98488.67;1754025;79;28152;-85
2022/07/06 18:10:49;;;;;;;1.72;1.12;;;;;;;19.69;95.48;98484.54;1755389;79;28061;-85
2022/07/06 18:13:15;;;;;;;3.30;1.22;;;;;;;19.68;95.67;98482.38;1756249;79;28138;-85
2022/07/06 18:15:42;;;;;;;2.30;1.00;;;;;;;19.71;96.08;98484.69;1758121;79;28077;-89
2022/07/06 18:18:10;;;;;;;5.20;1.00;;;;;;;19.64;96.23;98481.85;1756871;79;28466;-85
2022/07/06 18:20:37;;;;;;;5.95;1.37;;;;;;;19.61;96.46;98479.54;1755338;79;28125;-85
2022/07/06 18:23:04;;;;;;;3.17;1.35;;;;;;;19.60;96.96;98483.18;1757100;80;28045;-86
2022/07/06 18:25:46;;;;;;;2.80;1.22;;;;;;;19.61;97.28;98477.37;1756601;79;28080;-86
2022/07/06 18:28:16;;;;;;;4.45;1.35;;;;;;;19.65;97.71;98484.02;1756446;79;28149;-86
2022/07/06 18:30:47;;;;;;;3.47;1.10;;;;;;;19.62;97.89;98482.53;1723029;80;28185;-84
2022/07/06 18:33:16;;;;;;;1.67;1.35;;;;;;;19.69;98.15;98485.87;1756780;79;28085;-84
2022/07/06 18:35:58;;;;;;;2.80;1.25;;;;;;;19.84;98.87;98480.23;1758291;80;28162;-88
2022/07/06 18:38:22;;;;;;;3.75;1.22;;;;;;;20.09;99.75;98479.25;1752722;80;28046;-88
2022/07/06 18:40:51;;;;;;;3.47;1.17;;;;;;;20.26;100.00;98484.89;1755726;80;28099;-86
2022/07/06 18:43:19;;;;;;;2.55;1.07;;;;;;;20.39;100.00;98491.08;1754111;80;28154;-86
2022/07/06 18:45:50;;;;;;;3.92;1.70;;;;;;;20.50;100.00;98492.56;1756434;80;28172;-86
2022/07/06 18:48:17;;;;;;;7.85;1.47;;;;;;;20.56;100.00;98487.41;1756786;80;28085;-86
2022/07/06 18:50:45;;;;;;;2.77;1.17;;;;;;;20.58;100.00;98503.17;1756340;80;28130;-89
2022/07/06 18:53:15;;;;;;;4.62;1.37;;;;;;;20.52;100.00;98503.84;1755729;79;28119;-89
2022/07/06 18:55:40;;;;;;;2.47;1.57;;;;;;;20.49;100.00;98505.02;1756678;80;28032;-88
2022/07/06 18:58:06;;;;;;;2.22;1.50;;;;;;;20.49;100.00;98505.52;1755926;80;28156;-89
2022/07/06 19:00:32;;;;;;;1.40;1.20;;;;;;;20.48;100.00;98503.84;1754886;80;28057;-89
2022/07/06 19:02:58;;;;;;;1.40;1.30;;;;;;;20.41;100.00;98507.17;1750530;79;28081;-88
2022/07/06 19:05:25;;;;;;;6.00;1.70;;;;;;;20.38;100.00;98507.52;1740525;80;28162;-88
2022/07/06 19:07:51;;;;;;;3.02;1.50;;;;;;;20.34;100.00;98518.16;1741960;80;28133;-88
2022/07/06 19:10:18;;;;;;;6.15;2.17;;;;;;;20.31;100.00;98517.16;1752833;79;28046;-89
2022/07/06 19:12:44;;;;;;;6.15;1.95;;;;;;;20.27;100.00;98520.28;1752378;80;28125;-88
2022/07/06 19:15:11;;;;;;;4.40;1.90;;;;;;;20.19;100.00;98521.09;1757574;80;28138;-86
2022/07/06 19:17:39;;;;;;;4.03;1.65;;;;;;;20.13;100.00;98525.74;1757178;80;28100;-86
2022/07/06 19:20:11;;;;;;;2.98;1.85;;;;;;;20.04;100.00;98528.07;1760141;80;28140;-86
2022/07/06 19:22:40;;;;;;;3.65;2.20;;;;;;;19.96;100.00;98524.92;1760096;80;28102;-86
2022/07/06 19:25:13;;;;;;;4.92;1.90;;;;;;;19.92;100.00;98528.05;1758412;80;28115;-86
2022/07/06 19:27:40;;;;;;;3.67;2.12;;;;;;;19.85;100.00;98527.89;1756883;80;28105;-86
2022/07/06 19:30:07;;;;;;;6.80;2.47;;;;;;;19.79;100.00;98531.20;1752728;80;28119;-86
2022/07/06 19:32:34;;;;;;;3.87;2.92;;;;;;;19.73;100.00;98537.65;1761262;80;28101;-86
2022/07/06 19:35:00;;;;;;;3.27;2.47;;;;;;;19.64;100.00;98534.95;1755219;80;28081;-86
2022/07/06 19:37:27;;;;;;;4.72;2.30;;;;;;;19.55;100.00;98537.27;1752329;80;28150;-86
2022/07/06 19:39:53;;;;;;;7.90;2.05;;;;;;;19.48;100.00;98532.25;1758985;80;28027;-85
2022/07/06 19:42:19;;;;;;;3.10;1.90;;;;;;;19.41;100.00;98535.20;1756277;81;28146;-86
2022/07/06 19:44:45;;;;;;;3.15;1.52;;;;;;;19.36;100.00;98536.18;1758237;80;28098;-86
2022/07/06 19:47:11;;;;;;;2.87;1.65;;;;;;;19.31;100.00;98543.77;1758862;80;28150;-87
2022/07/06 19:49:37;;;;;;;3.42;1.40;;;;;;;19.25;100.00;98547.08;1756249;80;42199;-86
2022/07/06 19:52:05;;;;;;;;;;;;;;;19.16;100.00;98543.53;1763904;80;24634;-86
2022/07/06 19:54:32;;;;;;;2.47;1.40;;;;;;;19.07;100.00;98543.66;1760854;80;24610;-86
2022/07/06 19:56:58;;;;;;;3.42;1.40;;;;;;;18.99;100.00;98545.77;1758962;79;28156;-85
2022/07/06 19:59:25;;;;;;;3.83;1.50;;;;;;;18.94;100.00;98545.41;1743926;80;28268;-86
2022/07/06 20:01:51;;;;;;;2.85;1.40;;;;;;;18.91;100.00;98544.90;1722893;81;28125;-86
2022/07/06 20:04:18;;;;;;;2.27;1.32;;;;;;;18.92;100.00;98546.56;1754283;80;28191;-86
2022/07/06 20:06:44;;;;;;;4.10;1.60;;;;;;;18.86;100.00;98545.86;1755239;79;28169;-85
2022/07/06 20:09:12;;;;;;;3.62;1.47;;;;;;;18.67;100.00;98542.91;1755689;80;28138;-85
2022/07/06 20:11:38;;;;;;;2.10;1.10;;;;;;;18.59;100.00;98539.73;1759365;79;28047;-86
2022/07/06 20:14:05;;;;;;;3.02;1.20;;;;;;;18.59;100.00;98547.68;1725353;81;28023;-87
2022/07/06 20:16:31;;;;;;;1.87;1.35;;;;;;;18.59;100.00;98541.05;1759435;79;28096;-85
2022/07/06 20:18:58;;;;;;;4.87;1.55;;;;;;;18.57;100.00;98536.39;1762198;79;28092;-85
2022/07/06 20:21:25;;;;;;;3.60;1.60;;;;;;;18.61;100.00;98539.55;1755123;79;28094;-85
2022/07/06 20:23:56;;;;;;;2.22;1.62;;;;;;;18.59;100.00;98533.10;1755460;80;28097;-85
2022/07/06 20:26:22;;;;;;;3.12;1.60;;;;;;;18.53;100.00;98534.17;1756092;80;28017;-85
2022/07/06 20:28:52;;;;;;;2.98;1.45;;;;;;;18.51;100.00;98532.16;1723270;80;28173;-86
2022/07/06 20:31:18;;;;;;;2.40;1.50;;;;;;;18.52;100.00;98535.16;1755346;80;28073;-85
2022/07/06 20:33:44;;;;;;;4.30;1.67;;;;;;;18.50;100.00;98537.12;1757282;80;28127;-85
2022/07/06 20:36:11;;;;;;;3.60;1.52;;;;;;;18.46;100.00;98539.74;1757154;80;42274;-85
2022/07/06 20:38:40;;;;;;;1.95;1.50;;;;;;;18.41;100.00;98537.56;1755059;80;28065;-85
2022/07/06 20:41:06;;;;;;;3.00;1.60;;;;;;;18.37;100.00;98539.70;1755753;80;28095;-85
2022/07/06 20:43:32;;;;;;;2.08;1.22;;;;;;;18.31;100.00;98542.12;1758718;79;28194;-84
2022/07/06 20:45:58;;;;;;;3.35;1.90;;;;;;;18.22;100.00;98542.53;1754851;80;42442;-86
2022/07/06 20:48:24;;;;;;;10.35;2.52;;;;;;;18.13;100.00;98530.70;1759432;79;28107;-84
2022/07/06 20:50:56;;;;;;;4.55;1.98;;;;;;;18.14;100.00;98541.14;1757343;80;28098;-86
2022/07/06 20:53:28;;;;;;;4.92;2.02;;;;;;;18.09;100.00;98539.45;1756677;80;28042;-86
2022/07/06 20:55:54;;;;;;;2.30;2.10;;;;;;;18.04;100.00;98544.38;1756280;79;28165;-86
2022/07/06 20:58:20;;;;;;;4.03;1.75;;;;;;;17.97;100.00;98547.27;1755823;80;28081;-86
2022/07/06 21:00:52;;;;;;;3.22;1.50;;;;;;;17.89;100.00;98538.74;1757357;79;28172;-86
2022/07/06 21:03:21;;;;;;;2.83;1.90;;;;;;;17.81;100.00;98536.03;1757718;79;28108;-87
2022/07/06 21:05:48;;;;;;;2.47;2.00;;;;;;;17.74;100.00;98536.77;1758018;80;28087;-86
2022/07/06 21:08:14;;;;;;;2.15;1.60;;;;;;;17.67;100.00;98540.53;1762915;79;42348;-86
2022/07/06 21:10:40;;;;;;;4.83;2.10;;;;;;;17.57;100.00;98543.17;1761743;79;28071;-85
2022/07/06 21:13:07;;;;;;;2.67;1.50;;;;;;;17.50;100.00;98545.26;1753769;80;28161;-85
2022/07/06 21:15:33;;;;;;;4.20;1.90;;;;;;;17.47;100.00;98546.38;1753667;80;28123;-86
2022/07/06 21:18:00;;;;;;;3.92;2.17;;;;;;;17.43;100.00;98545.50;1756054;80;28030;-87
2022/07/06 21:20:26;;;;;;;2.87;1.80;;;;;;;17.38;100.00;98541.98;1748975;80;28149;-88
2022/07/06 21:22:52;;;;;;;2.92;2.02;;;;;;;17.37;100.00;98540.79;1753591;80;28059;-85
2022/07/06 21:25:20;;;;;;;2.58;2.12;;;;;;;17.31;100.00;98537.41;1730745;80;28083;-84
2022/07/06 21:27:46;;;;;;;3.65;2.77;;;;;;;17.29;100.00;98536.22;1753186;80;28117;-88
2022/07/06 21:30:14;;;;;;;6.65;2.40;;;;;;;17.28;100.00;98543.00;1753294;81;28163;-85
2022/07/06 21:32:40;;;;;;;2.83;2.05;;;;;;;17.25;100.00;98531.38;1754281;80;28097;-88
2022/07/06 21:35:07;;;;;;;5.53;2.27;;;;;;;17.24;100.00;98533.70;1753190;80;28183;-88
2022/07/06 21:37:33;;;;;;;3.83;2.50;;;;;;;17.20;100.00;98534.47;1753913;80;28153;-88
2022/07/06 21:40:00;;;;;;;5.83;2.30;;;;;;;17.20;100.00;98530.98;1756479;80;28108;-85
2022/07/06 21:42:26;;;;;;;7.60;3.25;;;;;;;17.23;100.00;98532.03;1756565;80;28111;-85
2022/07/06 21:44:52;;;;;;;4.85;2.75;;;;;;;17.23;100.00;98532.87;1753302;79;43188;-85
2022/07/06 21:47:18;;;;;;;2.87;2.27;;;;;;;17.23;100.00;98531.55;1751888;80;28087;-85
2022/07/06 21:49:47;;;;;;;3.85;2.27;;;;;;;17.23;100.00;98532.03;1755140;80;28073;-85
2022/07/06 21:52:14;;;;;;;4.20;2.35;;;;;;;17.18;100.00;98535.13;1754133;81;28087;-89
2022/07/06 21:54:43;;;;;;;4.58;2.40;;;;;;;17.16;100.00;98531.78;1750339;80;28038;-86
2022/07/06 21:57:09;;;;;;;4.67;2.80;;;;;;;17.13;100.00;98538.17;1751490;80;28131;-85
2022/07/06 21:59:36;;;;;;;7.62;2.75;;;;;;;17.09;100.00;98540.77;1752045;80;28178;-88
2022/07/06 22:02:06;;;;;;;7.97;3.02;;;;;;;17.03;100.00;98545.31;1753113;80;28025;-86
2022/07/06 22:04:32;;;;;;;5.15;3.05;;;;;;;16.99;100.00;98539.98;1729996;80;28183;-85
2022/07/06 22:06:57;;;;;;;;;;;;;;;16.98;100.00;98544.92;1757592;80;28165;-85
2022/07/06 22:09:25;;;;;;;4.30;2.80;;;;;;;16.96;100.00;98546.90;1754744;80;43169;-88
2022/07/06 22:11:51;;;;;;;5.60;3.40;;;;;;;16.96;100.00;98543.41;1753339;80;28142;-86
2022/07/06 22:14:20;;;;;;;4.75;2.80;;;;;;;16.93;100.00;98541.05;1755155;80;43098;-85
2022/07/06 22:16:46;;;;;;;4.90;3.00;;;;;;;16.89;100.00;98543.16;1754941;79;28117;-85
2022/07/06 22:19:12;;;;;;;4.03;2.55;;;;;;;16.85;100.00;98544.42;1754662;79;28135;-85
2022/07/06 22:21:38;;;;;;;6.10;3.00;;;;;;;16.80;100.00;98549.28;1755470;80;28081;-85
2022/07/06 22:24:05;;;;;;;6.47;2.70;;;;;;;16.73;100.00;98542.92;1754011;79;28167;-87
2022/07/06 22:26:31;;;;;;;3.22;2.70;;;;;;;16.69;100.00;98547.64;1757978;79;28002;-89
2022/07/06 22:28:57;;;;;;;4.42;2.40;;;;;;;16.65;100.00;98546.27;1755926;79;28151;-85
2022/07/06 22:31:30;;;;;;;5.75;2.77;;;;;;;16.63;100.00;98548.23;1757433;80;28113;-86